New Century — V7GF8 — position and weather

sailwx.info

Track history (hours):
 
Tides and Currents Weather Stations Pressure Air Temp Water Temp Dewpoint Dewpoint Depression Visibility Wind Speed Wind Dir Waves Ship Positions

New Century

Last reported at 2015-Aug-23 01:04 UTC. Time now 2015-Aug-30 09:53 UTC.
Position N 26°03' W 079°27'.

Length 228 m; draft 8.5 m.

Type: Tanker. MMSI: 538002085.

Date/timePositionNaut miles runAvg speedWind from/ knotsBaromVisibWave heightAir tempDewpointWater temp
2015-Aug-23 01:04N 26°03' W 079°27'612.0
2015-Aug-23 00:32N 26°09' W 079°30'  
2015-Aug-20 07:21N 39°12' W 073°59'2613.2
2015-Aug-20 05:22N 39°38' W 073°53'1613.0
2015-Aug-20 04:08N 39°54' W 073°51'3312.1
2015-Aug-20 01:23N 40°27' W 073°50'1011.6
2015-Aug-20 00:33N 40°32' W 074°01'5 4.9
2015-Aug-19 23:26N 40°37' W 074°04'0 0.2
2015-Aug-19 22:32N 40°37' W 074°03'0 0.0
2015-Aug-19 21:32N 40°37' W 074°03'0 0.0
2015-Aug-19 20:32N 40°37' W 074°03'0 0.2
2015-Aug-19 19:32N 40°37' W 074°04'0 0.2
2015-Aug-19 18:32N 40°37' W 074°03'9 0.5
2015-Aug-18 23:32N 40°33' W 074°14'0 0.0
2015-Aug-18 22:31N 40°33' W 074°14'0 0.0
2015-Aug-18 21:23N 40°33' W 074°14'0 0.0
2015-Aug-18 20:32N 40°33' W 074°14'0 0.0
2015-Aug-18 14:10N 40°33' W 074°14'0 0.0
2015-Aug-17 19:08N 40°33' W 074°15'4 2.8
2015-Aug-17 17:33N 40°30' W 074°10'8 8.0
2015-Aug-17 16:33N 40°29' W 073°60'2 1.9
2015-Aug-17 15:29N 40°31' W 073°58'910.2
2015-Aug-17 14:33N 40°39' W 074°04'1 0.7
2015-Aug-17 13:31N 40°39' W 074°05'0 0.0
2015-Aug-17 12:28N 40°39' W 074°05'0 0.0
2015-Aug-17 11:31N 40°39' W 074°05'0 0.0
2015-Aug-17 10:31N 40°39' W 074°05'0 0.0
2015-Aug-17 09:28N 40°39' W 074°05'0 0.0
2015-Aug-17 08:25N 40°39' W 074°05'0 0.0
2015-Aug-17 07:33N 40°39' W 074°05'0 0.0
2015-Aug-17 06:33N 40°39' W 074°05'0 0.0
2015-Aug-17 05:33N 40°39' W 074°05'0 0.0
2015-Aug-17 04:33N 40°39' W 074°05'0 0.0
2015-Aug-17 03:33N 40°39' W 074°05'0 0.0
2015-Aug-17 02:33N 40°39' W 074°05'0 0.0
2015-Aug-17 01:33N 40°39' W 074°05'0 0.0
2015-Aug-17 00:33N 40°39' W 074°05'0 0.0
2015-Aug-16 23:33N 40°39' W 074°05'0 0.0
2015-Aug-16 22:30N 40°39' W 074°05'0 0.0
2015-Aug-16 21:33N 40°39' W 074°05'0 0.0
2015-Aug-16 20:30N 40°39' W 074°05'0 0.0
2015-Aug-16 19:33N 40°39' W 074°05'0 0.0
2015-Aug-16 18:27N 40°39' W 074°05'0 0.0
2015-Aug-16 17:33N 40°39' W 074°05'0 0.0
2015-Aug-16 16:33N 40°39' W 074°05'0 0.0
2015-Aug-16 15:33N 40°39' W 074°05'0 0.0
2015-Aug-16 14:33N 40°39' W 074°05'0 0.0
2015-Aug-16 13:33N 40°39' W 074°05'0 0.0
2015-Aug-16 12:33N 40°39' W 074°05'0 0.0
2015-Aug-16 11:33N 40°39' W 074°05'0 0.0
2015-Aug-16 10:33N 40°39' W 074°05'0 0.0
2015-Aug-16 09:30N 40°39' W 074°05'0 0.0
2015-Aug-16 08:33N 40°39' W 074°05'0 0.0
2015-Aug-16 07:33N 40°39' W 074°05'0 0.0
2015-Aug-16 06:33N 40°39' W 074°05'0 0.0
2015-Aug-16 05:33N 40°39' W 074°05'0 0.0
2015-Aug-16 04:30N 40°39' W 074°05'0 0.0
2015-Aug-16 03:33N 40°39' W 074°05'0 0.0
2015-Aug-15 22:33N 40°39' W 074°05'0 0.0
2015-Aug-15 21:33N 40°39' W 074°05'0 0.0
2015-Aug-15 20:27N 40°39' W 074°05'0 0.0
2015-Aug-15 19:33N 40°39' W 074°05'0 0.0
2015-Aug-15 18:33N 40°39' W 074°05'0 0.0
2015-Aug-15 17:33N 40°39' W 074°05'0 0.0
2015-Aug-15 16:32N 40°39' W 074°05'0 0.0
2015-Aug-15 15:32N 40°39' W 074°05'0 0.0
2015-Aug-15 14:32N 40°39' W 074°05'0 0.0
2015-Aug-15 13:32N 40°39' W 074°05'1 1.2
2015-Aug-15 12:33N 40°39' W 074°04'7 6.9
2015-Aug-15 11:34N 40°32' W 074°01'1110.7
2015-Aug-15 10:32N 40°27' W 073°48'3 0.9
2015-Aug-15 07:20N 40°30' W 073°46'0 0.0
2015-Aug-15 06:10N 40°30' W 073°46'0 0.0
2015-Aug-15 05:31N 40°30' W 073°46'0 0.0
2015-Aug-15 04:31N 40°30' W 073°46'0 0.0
2015-Aug-15 03:31N 40°30' W 073°46'0 0.0
2015-Aug-15 02:32N 40°30' W 073°46'0 0.0
2015-Aug-15 01:30N 40°30' W 073°46'1 1.0
2015-Aug-15 00:33N 40°29' W 073°46'1010.2
2015-Aug-14 23:34N 40°28' W 073°32'1414.4
2015-Aug-14 22:34N 40°29' W 073°13'1815.0
2015-Aug-14 21:21N 40°30' W 072°49'1214.9
2015-Aug-14 20:34N 40°31' W 072°34'1515.0
2015-Aug-14 19:33N 40°31' W 072°14'1515.0
2015-Aug-14 18:34N 40°31' W 071°54'1514.9
2015-Aug-14 17:34N 40°32' W 071°35'1515.0
2015-Aug-14 16:34N 40°32' W 071°15'1514.9
2015-Aug-14 15:34N 40°32' W 070°55'7 6.6
2015-Aug-14 14:33N 40°32' W 070°47'4814.7
2015-Aug-14 11:20N 40°34' W 069°44'1215.9
2015-Aug-14 10:33N 40°34' W 069°28'1616.1
2015-Aug-14 09:34N 40°34' W 069°07'1615.7
2015-Aug-14 08:33N 40°34' W 068°46'1515.2
2015-Aug-14 07:34N 40°34' W 068°26'1514.9
2015-Aug-14 06:33N 40°31' W 068°06'  
Track history (hours):
 
Tides and Currents Weather Stations Pressure Air Temp Water Temp Dewpoint Dewpoint Depression Visibility Wind Speed Wind Dir Waves Ship Positions

New Century

Last reported at 2015-Aug-23 01:04 UTC. Time now 2015-Aug-30 09:53 UTC.
Position N 26°03' W 079°27'.

Length 228 m; draft 8.5 m.

Type: Tanker. MMSI: 538002085.

Date/timePositionNaut miles runAvg speedWind from/ knotsBaromVisibWave heightAir tempDewpointWater temp
2015-Aug-23 01:04N 26°03' W 079°27'612.0
2015-Aug-23 00:32N 26°09' W 079°30'  
2015-Aug-20 07:21N 39°12' W 073°59'2613.2
2015-Aug-20 05:22N 39°38' W 073°53'1613.0
2015-Aug-20 04:08N 39°54' W 073°51'3312.1
2015-Aug-20 01:23N 40°27' W 073°50'1011.6
2015-Aug-20 00:33N 40°32' W 074°01'5 4.9
2015-Aug-19 23:26N 40°37' W 074°04'0 0.2
2015-Aug-19 22:32N 40°37' W 074°03'0 0.0
2015-Aug-19 21:32N 40°37' W 074°03'0 0.0
2015-Aug-19 20:32N 40°37' W 074°03'0 0.2
2015-Aug-19 19:32N 40°37' W 074°04'0 0.2
2015-Aug-19 18:32N 40°37' W 074°03'9 0.5
2015-Aug-18 23:32N 40°33' W 074°14'0 0.0
2015-Aug-18 22:31N 40°33' W 074°14'0 0.0
2015-Aug-18 21:23N 40°33' W 074°14'0 0.0
2015-Aug-18 20:32N 40°33' W 074°14'0 0.0
2015-Aug-18 14:10N 40°33' W 074°14'0 0.0
2015-Aug-17 19:08N 40°33' W 074°15'4 2.8
2015-Aug-17 17:33N 40°30' W 074°10'8 8.0
2015-Aug-17 16:33N 40°29' W 073°60'2 1.9
2015-Aug-17 15:29N 40°31' W 073°58'910.2
2015-Aug-17 14:33N 40°39' W 074°04'1 0.7
2015-Aug-17 13:31N 40°39' W 074°05'0 0.0
2015-Aug-17 12:28N 40°39' W 074°05'0 0.0
2015-Aug-17 11:31N 40°39' W 074°05'0 0.0
2015-Aug-17 10:31N 40°39' W 074°05'0 0.0
2015-Aug-17 09:28N 40°39' W 074°05'0 0.0
2015-Aug-17 08:25N 40°39' W 074°05'0 0.0
2015-Aug-17 07:33N 40°39' W 074°05'0 0.0
2015-Aug-17 06:33N 40°39' W 074°05'0 0.0
2015-Aug-17 05:33N 40°39' W 074°05'0 0.0
2015-Aug-17 04:33N 40°39' W 074°05'0 0.0
2015-Aug-17 03:33N 40°39' W 074°05'0 0.0
2015-Aug-17 02:33N 40°39' W 074°05'0 0.0
2015-Aug-17 01:33N 40°39' W 074°05'0 0.0
2015-Aug-17 00:33N 40°39' W 074°05'0 0.0
2015-Aug-16 23:33N 40°39' W 074°05'0 0.0
2015-Aug-16 22:30N 40°39' W 074°05'0 0.0
2015-Aug-16 21:33N 40°39' W 074°05'0 0.0
2015-Aug-16 20:30N 40°39' W 074°05'0 0.0
2015-Aug-16 19:33N 40°39' W 074°05'0 0.0
2015-Aug-16 18:27N 40°39' W 074°05'0 0.0
2015-Aug-16 17:33N 40°39' W 074°05'0 0.0
2015-Aug-16 16:33N 40°39' W 074°05'0 0.0
2015-Aug-16 15:33N 40°39' W 074°05'0 0.0
2015-Aug-16 14:33N 40°39' W 074°05'0 0.0
2015-Aug-16 13:33N 40°39' W 074°05'0 0.0
2015-Aug-16 12:33N 40°39' W 074°05'0 0.0
2015-Aug-16 11:33N 40°39' W 074°05'0 0.0
2015-Aug-16 10:33N 40°39' W 074°05'0 0.0
2015-Aug-16 09:30N 40°39' W 074°05'0 0.0
2015-Aug-16 08:33N 40°39' W 074°05'0 0.0
2015-Aug-16 07:33N 40°39' W 074°05'0 0.0
2015-Aug-16 06:33N 40°39' W 074°05'0 0.0
2015-Aug-16 05:33N 40°39' W 074°05'0 0.0
2015-Aug-16 04:30N 40°39' W 074°05'0 0.0
2015-Aug-16 03:33N 40°39' W 074°05'0 0.0
2015-Aug-15 22:33N 40°39' W 074°05'0 0.0
2015-Aug-15 21:33N 40°39' W 074°05'0 0.0
2015-Aug-15 20:27N 40°39' W 074°05'0 0.0
2015-Aug-15 19:33N 40°39' W 074°05'0 0.0
2015-Aug-15 18:33N 40°39' W 074°05'0 0.0
2015-Aug-15 17:33N 40°39' W 074°05'0 0.0
2015-Aug-15 16:32N 40°39' W 074°05'0 0.0
2015-Aug-15 15:32N 40°39' W 074°05'0 0.0
2015-Aug-15 14:32N 40°39' W 074°05'0 0.0
2015-Aug-15 13:32N 40°39' W 074°05'1 1.2
2015-Aug-15 12:33N 40°39' W 074°04'7 6.9
2015-Aug-15 11:34N 40°32' W 074°01'1110.7
2015-Aug-15 10:32N 40°27' W 073°48'3 0.9
2015-Aug-15 07:20N 40°30' W 073°46'0 0.0
2015-Aug-15 06:10N 40°30' W 073°46'0 0.0
2015-Aug-15 05:31N 40°30' W 073°46'0 0.0
2015-Aug-15 04:31N 40°30' W 073°46'0 0.0
2015-Aug-15 03:31N 40°30' W 073°46'0 0.0
2015-Aug-15 02:32N 40°30' W 073°46'0 0.0
2015-Aug-15 01:30N 40°30' W 073°46'1 1.0
2015-Aug-15 00:33N 40°29' W 073°46'1010.2
2015-Aug-14 23:34N 40°28' W 073°32'1414.4
2015-Aug-14 22:34N 40°29' W 073°13'1815.0
2015-Aug-14 21:21N 40°30' W 072°49'1214.9
2015-Aug-14 20:34N 40°31' W 072°34'1515.0
2015-Aug-14 19:33N 40°31' W 072°14'1515.0
2015-Aug-14 18:34N 40°31' W 071°54'1514.9
2015-Aug-14 17:34N 40°32' W 071°35'1515.0
2015-Aug-14 16:34N 40°32' W 071°15'1514.9
2015-Aug-14 15:34N 40°32' W 070°55'7 6.6
2015-Aug-14 14:33N 40°32' W 070°47'4814.7
2015-Aug-14 11:20N 40°34' W 069°44'1215.9
2015-Aug-14 10:33N 40°34' W 069°28'1616.1
2015-Aug-14 09:34N 40°34' W 069°07'1615.7
2015-Aug-14 08:33N 40°34' W 068°46'1515.2
2015-Aug-14 07:34N 40°34' W 068°26'1514.9
2015-Aug-14 06:33N 40°31' W 068°06'  

Dump ship's entire track history